Time,TemperatureF,DewpointF,PressureIn,WindDirection,WindDirectionDegrees,WindSpeedMPH,WindSpeedGustMPH,Humidity,HourlyPrecipIn,Conditions,Clouds,dailyrainin,SoftwareType,DateUTC
2013-06-15 10:42:00,79.9,60.7,30.05,South,180,1.3,1.3,52,0.00,,,0.00,WUHU216HW,2013-06-15 14:42:00,
2013-06-15 10:43:00,79.9,60.7,30.05,South,180,1.3,1.3,52,0.00,,,0.00,WUHU216HW,2013-06-15 14:43:00,
2013-06-15 10:45:00,79.9,60.7,30.05,South,180,1.3,1.3,52,0.00,,,0.00,WUHU216HW,2013-06-15 14:45:00,
2013-06-15 10:50:00,79.9,59.7,30.04,ESE,113,1.6,2.2,50,0.00,,,0.00,WUHU216HW,2013-06-15 14:50:00,
2013-06-15 10:55:00,80.5,60.1,30.04,SW,225,1.6,2.5,50,0.00,,,0.00,WUHU216HW,2013-06-15 14:55:00,
2013-06-15 11:00:00,81.4,60.3,30.03,SE,135,0.0,2.5,49,0.00,,,0.00,WUHU216HW,2013-06-15 15:00:00,
2013-06-15 11:05:00,82.6,61.5,30.03,West,270,1.1,1.6,49,0.00,,,0.00,WUHU216HW,2013-06-15 15:05:00,
2013-06-15 11:10:00,82.8,59.9,30.03,South,180,0.7,1.1,46,0.00,,,0.00,WUHU216HW,2013-06-15 15:10:00,
2013-06-15 11:15:00,83.2,60.8,30.04,North,0,0.7,2.0,47,0.00,,,0.00,WUHU216HW,2013-06-15 15:15:00,
2013-06-15 11:20:00,83.5,60.5,30.04,South,180,0.4,2.0,46,0.00,,,0.00,WUHU216HW,2013-06-15 15:20:00,
2013-06-15 11:25:00,83.7,60.7,30.04,NNE,23,1.1,1.1,46,0.00,,,0.00,WUHU216HW,2013-06-15 15:25:00,
2013-06-15 11:30:00,83.7,60.0,30.04,SSW,203,2.0,2.0,45,0.00,,,0.00,WUHU216HW,2013-06-15 15:30:00,
2013-06-15 11:36:00,84.2,61.2,30.03,SE,135,1.1,2.0,46,0.00,,,0.00,WUHU216HW,2013-06-15 15:36:00,
2013-06-15 11:41:00,83.7,59.4,30.03,NNW,338,2.7,4.0,44,0.00,,,0.00,WUHU216HW,2013-06-15 15:41:00,
2013-06-15 11:46:00,83.7,60.0,30.03,ENE,68,2.0,4.0,45,0.00,,,0.00,WUHU216HW,2013-06-15 15:46:00,
2013-06-15 11:51:00,83.5,58.1,30.03,SE,135,4.7,4.7,42,0.00,,,0.00,WUHU216HW,2013-06-15 15:51:00,
2013-06-15 11:56:00,83.5,59.2,30.03,NW,315,0.4,4.7,44,0.00,,,0.00,WUHU216HW,2013-06-15 15:56:00,
2013-06-15 12:01:00,84.6,60.9,30.03,WSW,248,0.7,4.7,45,0.00,,,0.00,WUHU216HW,2013-06-15 16:01:00,
2013-06-15 12:06:00,84.4,59.5,30.03,South,180,0.7,0.7,43,0.00,,,0.00,WUHU216HW,2013-06-15 16:06:00,
2013-06-15 12:11:00,83.9,59.6,30.03,NNE,23,1.3,1.3,44,0.00,,,0.00,WUHU216HW,2013-06-15 16:11:00,
2013-06-15 12:16:00,83.7,60.0,30.03,North,0,4.0,4.0,45,0.00,,,0.00,WUHU216HW,2013-06-15 16:16:00,
2013-06-15 12:21:00,83.9,59.6,30.03,West,270,2.5,4.9,44,0.00,,,0.00,WUHU216HW,2013-06-15 16:21:00,
2013-06-15 12:26:00,83.9,60.8,30.03,SW,225,0.9,4.9,46,0.00,,,0.00,WUHU216HW,2013-06-15 16:26:00,
2013-06-15 12:31:00,84.6,60.9,30.03,SSE,158,0.7,2.5,45,0.00,,,0.00,WUHU216HW,2013-06-15 16:31:00,
2013-06-15 12:36:00,84.8,60.4,30.02,ENE,68,0.9,0.9,44,0.00,,,0.00,WUHU216HW,2013-06-15 16:36:00,
2013-06-15 12:41:00,84.2,59.9,30.02,SW,225,2.5,2.5,44,0.00,,,0.00,WUHU216HW,2013-06-15 16:41:00,
2013-06-15 12:46:00,83.9,59.6,30.02,SSE,158,1.8,2.5,44,0.00,,,0.00,WUHU216HW,2013-06-15 16:46:00,
2013-06-15 12:52:00,83.9,59.6,30.02,SW,225,1.6,1.8,44,0.00,,,0.00,WUHU216HW,2013-06-15 16:52:00,
2013-06-15 12:57:00,83.5,59.9,30.02,WSW,248,1.3,1.8,45,0.00,,,0.00,WUHU216HW,2013-06-15 16:57:00,
2013-06-15 13:02:00,83.5,59.9,30.02,NW,315,0.4,1.6,45,0.00,,,0.00,WUHU216HW,2013-06-15 17:02:00,
2013-06-15 13:07:00,83.9,59.6,30.02,South,180,0.7,1.3,44,0.00,,,0.00,WUHU216HW,2013-06-15 17:07:00,
2013-06-15 13:12:00,83.5,59.2,30.02,South,180,2.9,2.9,44,0.00,,,0.00,WUHU216HW,2013-06-15 17:12:00,
2013-06-15 13:17:00,82.6,59.1,30.02,NE,45,1.6,2.9,45,0.00,,,0.00,WUHU216HW,2013-06-15 17:17:00,
2013-06-15 13:22:00,82.3,59.3,30.01,SSW,203,0.4,2.9,46,0.00,,,0.00,WUHU216HW,2013-06-15 17:22:00,
2013-06-15 13:27:00,83.0,60.0,30.01,NE,45,1.6,1.6,46,0.00,,,0.00,WUHU216HW,2013-06-15 17:27:00,
2013-06-15 13:32:00,83.9,59.6,30.01,NNE,23,0.2,3.4,44,0.00,,,0.00,WUHU216HW,2013-06-15 17:32:00,
2013-06-15 13:37:00,84.2,59.3,30.01,NNW,338,1.1,3.4,43,0.00,,,0.00,WUHU216HW,2013-06-15 17:37:00,
2013-06-15 13:42:00,84.2,58.7,30.00,North,0,0.0,1.1,42,0.00,,,0.00,WUHU216HW,2013-06-15 17:42:00,
2013-06-15 13:47:00,84.6,59.1,30.00,ENE,68,1.3,1.3,42,0.00,,,0.00,WUHU216HW,2013-06-15 17:47:00,
2013-06-15 13:52:00,85.0,58.7,30.00,NE,45,1.1,1.8,41,0.00,,,0.00,WUHU216HW,2013-06-15 17:52:00,
2013-06-15 13:57:00,85.1,59.5,30.00,ENE,68,2.5,2.5,42,0.00,,,0.00,WUHU216HW,2013-06-15 17:57:00,
2013-06-15 14:02:00,85.3,59.7,29.99,NNW,338,2.5,2.5,42,0.00,,,0.00,WUHU216HW,2013-06-15 18:02:00,
2013-06-15 14:07:00,84.6,58.4,29.99,SSW,203,1.6,2.5,41,0.00,,,0.00,WUHU216HW,2013-06-15 18:07:00,
2013-06-15 14:12:00,84.2,58.1,29.99,SW,225,1.8,1.8,41,0.00,,,0.00,WUHU216HW,2013-06-15 18:12:00,
2013-06-15 14:17:00,83.9,57.7,29.99,WSW,248,1.3,1.8,41,0.00,,,0.00,WUHU216HW,2013-06-15 18:17:00,
2013-06-15 14:22:00,83.2,57.7,29.99,SSE,158,0.9,1.8,42,0.00,,,0.00,WUHU216HW,2013-06-15 18:22:00,
2013-06-15 14:27:00,83.5,57.4,29.99,NE,45,2.5,2.5,41,0.00,,,0.00,WUHU216HW,2013-06-15 18:27:00,
2013-06-15 14:32:00,84.1,57.9,29.99,North,0,1.3,2.5,41,0.00,,,0.00,WUHU216HW,2013-06-15 18:32:00,
2013-06-15 14:37:00,85.3,59.7,29.99,SE,135,1.1,2.5,42,0.00,,,0.00,WUHU216HW,2013-06-15 18:37:00,
2013-06-15 14:42:00,85.5,59.2,29.99,WSW,248,1.3,1.8,41,0.00,,,0.00,WUHU216HW,2013-06-15 18:42:00,
2013-06-15 14:47:00,85.9,58.9,29.99,SSE,158,0.7,1.3,40,0.00,,,0.00,WUHU216HW,2013-06-15 18:47:00,
2013-06-15 14:53:00,86.0,60.3,29.98,North,0,0.4,1.3,42,0.00,,,0.00,WUHU216HW,2013-06-15 18:53:00,
2013-06-15 14:58:00,86.2,59.9,29.98,NE,45,1.8,1.8,41,0.00,,,0.00,WUHU216HW,2013-06-15 18:58:00,
2013-06-15 15:03:00,86.4,58.6,29.98,NW,315,1.1,1.8,39,0.00,,,0.00,WUHU216HW,2013-06-15 19:03:00,
2013-06-15 15:08:00,86.4,57.0,29.98,NNW,338,0.2,1.8,37,0.00,,,0.00,WUHU216HW,2013-06-15 19:08:00,
2013-06-15 15:13:00,86.6,57.2,29.98,SSW,203,0.7,1.1,37,0.00,,,0.00,WUHU216HW,2013-06-15 19:13:00,
2013-06-15 15:18:00,86.0,55.9,29.98,South,180,2.5,2.5,36,0.00,,,0.00,WUHU216HW,2013-06-15 19:18:00,
2013-06-15 15:23:00,85.9,57.3,29.98,NE,45,0.7,2.5,38,0.00,,,0.00,WUHU216HW,2013-06-15 19:23:00,
2013-06-15 15:28:00,85.9,56.5,29.98,SE,135,1.6,3.4,37,0.00,,,0.00,WUHU216HW,2013-06-15 19:28:00,
2013-06-15 15:33:00,85.9,56.5,29.98,NE,45,1.1,3.4,37,0.00,,,0.00,WUHU216HW,2013-06-15 19:33:00,
2013-06-15 15:38:00,86.6,58.8,29.98,West,270,1.8,3.6,39,0.00,,,0.00,WUHU216HW,2013-06-15 19:38:00,
2013-06-15 15:43:00,86.6,58.0,29.98,ENE,68,1.8,3.6,38,0.00,,,0.00,WUHU216HW,2013-06-15 19:43:00,
2013-06-15 15:48:00,86.6,58.0,29.98,SW,225,1.1,1.8,38,0.00,,,0.00,WUHU216HW,2013-06-15 19:48:00,
2013-06-15 15:53:00,86.4,57.8,29.98,North,0,1.3,1.8,38,0.00,,,0.00,WUHU216HW,2013-06-15 19:53:00,
2013-06-15 15:58:00,87.1,60.0,29.98,East,90,0.2,3.4,40,0.00,,,0.00,WUHU216HW,2013-06-15 19:58:00,
2013-06-15 16:04:00,87.3,59.4,29.97,ENE,68,1.3,3.4,39,0.00,,,0.00,WUHU216HW,2013-06-15 20:04:00,
2013-06-15 16:08:00,87.5,58.7,29.97,SW,225,2.7,2.7,38,0.00,,,0.00,WUHU216HW,2013-06-15 20:08:00,
2013-06-15 16:13:00,87.5,58.7,29.97,SSW,203,0.9,2.7,38,0.00,,,0.00,WUHU216HW,2013-06-15 20:13:00,
2013-06-15 16:19:00,86.8,58.1,29.97,NNW,338,2.5,2.5,38,0.00,,,0.00,WUHU216HW,2013-06-15 20:19:00,
2013-06-15 16:24:00,86.9,59.0,29.97,NNE,23,1.6,2.5,39,0.00,,,0.00,WUHU216HW,2013-06-15 20:24:00,
2013-06-15 16:29:00,87.1,60.0,29.97,North,0,0.7,2.5,40,0.00,,,0.00,WUHU216HW,2013-06-15 20:29:00,
2013-06-15 16:34:00,87.5,59.5,29.97,WSW,248,1.1,1.8,39,0.00,,,0.00,WUHU216HW,2013-06-15 20:34:00,
2013-06-15 16:39:00,87.7,59.7,29.97,WNW,293,0.7,1.8,39,0.00,,,0.00,WUHU216HW,2013-06-15 20:39:00,
2013-06-15 16:44:00,87.1,59.2,29.97,South,180,0.0,1.6,39,0.00,,,0.00,WUHU216HW,2013-06-15 20:44:00,
2013-06-15 16:49:00,86.0,58.2,29.97,SW,225,0.0,1.1,39,0.00,,,0.00,WUHU216HW,2013-06-15 20:49:00,
2013-06-15 16:54:00,86.2,57.6,29.97,NE,45,3.1,3.1,38,0.00,,,0.00,WUHU216HW,2013-06-15 20:54:00,
2013-06-15 16:59:00,86.6,60.1,29.97,SE,135,0.2,3.1,41,0.00,,,0.00,WUHU216HW,2013-06-15 20:59:00,
2013-06-15 17:04:00,87.8,60.7,29.97,SW,225,0.7,3.4,40,0.00,,,0.00,WUHU216HW,2013-06-15 21:04:00,
2013-06-15 17:09:00,87.3,59.4,29.97,SW,225,0.9,3.4,39,0.00,,,0.00,WUHU216HW,2013-06-15 21:09:00,
2013-06-15 17:14:00,87.1,60.0,29.97,SSW,203,1.1,1.1,40,0.00,,,0.00,WUHU216HW,2013-06-15 21:14:00,
2013-06-15 17:20:00,86.4,57.8,29.97,SW,225,3.1,3.1,38,0.00,,,0.00,WUHU216HW,2013-06-15 21:20:00,
2013-06-15 17:25:00,86.4,58.6,29.97,South,180,1.6,3.1,39,0.00,,,0.00,WUHU216HW,2013-06-15 21:25:00,
2013-06-15 17:30:00,87.7,60.5,29.97,ESE,113,0.7,3.1,40,0.00,,,0.00,WUHU216HW,2013-06-15 21:30:00,
2013-06-15 17:35:00,88.9,60.8,29.97,SW,225,0.4,1.6,39,0.00,,,0.00,WUHU216HW,2013-06-15 21:35:00,
2013-06-15 17:40:00,90.0,59.2,29.96,SW,225,1.1,1.1,36,0.00,,,0.00,WUHU216HW,2013-06-15 21:40:00,
2013-06-15 17:45:00,90.4,59.6,29.96,SSE,158,0.4,1.1,36,0.00,,,0.00,WUHU216HW,2013-06-15 21:45:00,
2013-06-15 17:50:00,90.7,59.1,29.96,SW,225,0.7,1.3,35,0.00,,,0.00,WUHU216HW,2013-06-15 21:50:00,
2013-06-15 17:55:00,91.1,59.4,29.96,SSW,203,1.8,1.8,35,0.00,,,0.00,WUHU216HW,2013-06-15 21:55:00,
2013-06-15 18:00:00,91.3,60.4,29.96,NW,315,0.0,1.8,36,0.00,,,0.00,WUHU216HW,2013-06-15 22:00:00,
2013-06-15 18:05:00,90.7,59.1,29.96,SSE,158,0.9,2.5,35,0.00,,,0.00,WUHU216HW,2013-06-15 22:05:00,
2013-06-15 18:10:00,89.5,58.0,29.96,SW,225,1.1,2.5,35,0.00,,,0.00,WUHU216HW,2013-06-15 22:10:00,
2013-06-15 18:15:00,87.1,57.6,29.96,ESE,113,0.7,1.1,37,0.00,,,0.00,WUHU216HW,2013-06-15 22:15:00,
2013-06-15 18:20:00,85.9,57.3,29.96,East,90,0.0,1.1,38,0.00,,,0.00,WUHU216HW,2013-06-15 22:20:00,
2013-06-15 18:25:00,85.0,57.2,29.96,SE,135,0.4,0.7,39,0.00,,,0.00,WUHU216HW,2013-06-15 22:25:00,
2013-06-15 18:30:00,84.4,56.8,29.96,North,0,2.2,2.2,39,0.00,,,0.00,WUHU216HW,2013-06-15 22:30:00,
2013-06-15 18:35:00,83.9,56.4,29.96,SSE,158,0.0,2.2,39,0.00,,,0.00,WUHU216HW,2013-06-15 22:35:00,
2013-06-15 18:40:00,83.2,56.4,29.96,ESE,113,0.7,2.2,40,0.00,,,0.00,WUHU216HW,2013-06-15 22:40:00,
2013-06-15 18:45:00,82.8,56.7,29.96,SW,225,1.1,1.1,41,0.00,,,0.00,WUHU216HW,2013-06-15 22:45:00,
2013-06-15 18:50:00,82.6,56.6,29.96,NE,45,0.0,1.1,41,0.00,,,0.00,WUHU216HW,2013-06-15 22:50:00,
2013-06-15 18:56:00,82.4,56.4,29.96,NNW,338,2.0,2.0,41,0.00,,,0.00,WUHU216HW,2013-06-15 22:56:00,
2013-06-15 19:01:00,82.1,56.7,29.96,NNW,338,0.0,2.0,42,0.00,,,0.00,WUHU216HW,2013-06-15 23:01:00,
2013-06-15 19:06:00,81.7,56.3,29.96,SW,225,0.0,0.0,42,0.00,,,0.00,WUHU216HW,2013-06-15 23:06:00,
2013-06-15 19:11:00,81.5,56.3,29.97,ESE,113,0.0,0.0,42,0.00,,,0.00,WUHU216HW,2013-06-15 23:11:00,
2013-06-15 19:16:00,81.4,56.1,29.97,WSW,248,0.0,0.0,42,0.00,,,0.00,WUHU216HW,2013-06-15 23:16:00,
2013-06-15 19:21:00,81.0,56.3,29.97,South,180,0.0,0.0,43,0.00,,,0.00,WUHU216HW,2013-06-15 23:21:00,
2013-06-15 19:26:00,80.8,56.8,29.97,ESE,113,0.0,0.0,44,0.00,,,0.00,WUHU216HW,2013-06-15 23:26:00,
2013-06-15 19:32:00,80.6,56.6,29.97,WNW,293,0.2,0.2,44,0.00,,,0.00,WUHU216HW,2013-06-15 23:32:00,
2013-06-15 19:37:00,80.3,56.4,29.97,NNE,23,0.0,0.2,44,0.00,,,0.00,WUHU216HW,2013-06-15 23:37:00,
2013-06-15 19:42:00,80.3,56.4,29.97,NNE,23,0.0,0.0,44,0.00,,,0.00,WUHU216HW,2013-06-15 23:42:00,
2013-06-15 19:47:00,80.3,56.4,29.97,NNE,23,0.0,0.0,44,0.00,,,0.00,WUHU216HW,2013-06-15 23:47:00,
2013-06-15 20:00:00,79.4,56.1,29.97,NNE,23,0.0,0.0,45,0.00,,,0.00,WUHU216HW,2013-06-16 00:00:00,
2013-06-15 20:05:00,79.0,56.4,29.97,ESE,113,0.0,0.0,46,0.00,,,0.00,WUHU216HW,2013-06-16 00:05:00,
2013-06-15 20:10:00,78.7,56.1,29.97,ESE,113,0.2,0.2,46,0.00,,,0.00,WUHU216HW,2013-06-16 00:10:00,
2013-06-15 20:15:00,78.5,55.9,29.98,ESE,113,0.0,0.2,46,0.00,,,0.00,WUHU216HW,2013-06-16 00:15:00,
2013-06-15 20:20:00,77.9,56.1,29.97,ESE,113,0.0,0.2,47,0.00,,,0.00,WUHU216HW,2013-06-16 00:20:00,
2013-06-15 20:25:00,77.8,55.9,29.98,ESE,113,0.0,0.0,47,0.00,,,0.00,WUHU216HW,2013-06-16 00:25:00,
2013-06-15 20:30:00,77.4,56.2,29.97,ESE,113,0.0,0.0,48,0.00,,,0.00,WUHU216HW,2013-06-16 00:30:00,
2013-06-15 20:36:00,77.0,55.8,29.97,ESE,113,0.0,0.0,48,0.00,,,0.00,WUHU216HW,2013-06-16 00:36:00,
2013-06-15 20:41:00,76.5,56.0,29.97,ESE,113,0.0,0.0,49,0.00,,,0.00,WUHU216HW,2013-06-16 00:41:00,
2013-06-15 20:46:00,76.1,56.3,29.98,ESE,113,0.0,0.0,50,0.00,,,0.00,WUHU216HW,2013-06-16 00:46:00,
2013-06-15 20:51:00,76.0,56.1,29.97,ESE,113,0.0,0.0,50,0.00,,,0.00,WUHU216HW,2013-06-16 00:51:00,
2013-06-15 20:56:00,75.2,56.0,29.97,ESE,113,0.0,0.0,51,0.00,,,0.00,WUHU216HW,2013-06-16 00:56:00,
2013-06-15 21:01:00,75.1,55.8,29.97,ESE,113,0.0,0.0,51,0.00,,,0.00,WUHU216HW,2013-06-16 01:01:00,
2013-06-15 21:06:00,74.7,55.9,29.98,ESE,113,0.0,0.0,52,0.00,,,0.00,WUHU216HW,2013-06-16 01:06:00,
2013-06-15 21:12:00,74.3,56.1,29.98,ESE,113,0.0,0.0,53,0.00,,,0.00,WUHU216HW,2013-06-16 01:12:00,
2013-06-15 21:17:00,74.2,55.9,29.98,ESE,113,0.0,0.0,53,0.00,,,0.00,WUHU216HW,2013-06-16 01:17:00,
2013-06-15 21:22:00,73.8,55.5,29.98,ESE,113,0.0,0.0,53,0.00,,,0.00,WUHU216HW,2013-06-16 01:22:00,
2013-06-15 21:27:00,73.4,55.6,29.98,ESE,113,0.0,0.0,54,0.00,,,0.00,WUHU216HW,2013-06-16 01:27:00,
2013-06-15 21:32:00,73.3,55.5,29.99,ESE,113,0.0,0.0,54,0.00,,,0.00,WUHU216HW,2013-06-16 01:32:00,
2013-06-15 21:37:00,73.1,55.4,29.99,ESE,113,0.0,0.0,54,0.00,,,0.00,WUHU216HW,2013-06-16 01:37:00,
2013-06-15 21:42:00,72.7,55.5,29.99,ESE,113,0.0,0.0,55,0.00,,,0.00,WUHU216HW,2013-06-16 01:42:00,
2013-06-15 21:47:00,72.5,55.4,29.99,ESE,113,0.0,0.0,55,0.00,,,0.00,WUHU216HW,2013-06-16 01:47:00,
2013-06-15 21:53:00,72.5,55.4,29.99,ESE,113,0.0,0.0,55,0.00,,,0.00,WUHU216HW,2013-06-16 01:53:00,
2013-06-15 21:58:00,72.2,55.0,29.99,ESE,113,0.0,0.0,55,0.00,,,0.00,WUHU216HW,2013-06-16 01:58:00,
2013-06-15 22:03:00,72.0,55.4,29.99,ESE,113,0.0,0.0,56,0.00,,,0.00,WUHU216HW,2013-06-16 02:03:00,
2013-06-15 22:08:00,71.8,55.2,29.99,ESE,113,0.0,0.0,56,0.00,,,0.00,WUHU216HW,2013-06-16 02:08:00,
2013-06-15 22:13:00,71.6,55.1,29.99,ESE,113,0.0,0.0,56,0.00,,,0.00,WUHU216HW,2013-06-16 02:13:00,
2013-06-15 22:18:00,71.6,55.1,29.99,ESE,113,0.2,0.2,56,0.00,,,0.00,WUHU216HW,2013-06-16 02:18:00,
2013-06-15 22:23:00,71.5,54.9,29.99,ESE,113,0.0,0.2,56,0.00,,,0.00,WUHU216HW,2013-06-16 02:23:00,
2013-06-15 22:29:00,71.3,54.7,29.99,ESE,113,0.0,0.0,56,0.00,,,0.00,WUHU216HW,2013-06-16 02:29:00,
2013-06-15 22:34:00,71.3,54.7,29.99,ESE,113,0.0,0.0,56,0.00,,,0.00,WUHU216HW,2013-06-16 02:34:00,
2013-06-15 22:39:00,71.1,54.5,29.99,East,90,0.9,0.9,56,0.00,,,0.00,WUHU216HW,2013-06-16 02:39:00,
2013-06-15 22:44:00,70.9,54.9,29.99,North,0,0.9,0.9,57,0.00,,,0.00,WUHU216HW,2013-06-16 02:44:00,
2013-06-15 22:49:00,70.9,54.9,29.99,North,0,0.0,0.9,57,0.00,,,0.00,WUHU216HW,2013-06-16 02:49:00,
2013-06-15 22:54:00,70.9,54.9,29.99,North,0,0.0,0.9,57,0.00,,,0.00,WUHU216HW,2013-06-16 02:54:00,
2013-06-15 22:59:00,70.7,54.7,29.99,North,0,0.0,0.0,57,0.00,,,0.00,WUHU216HW,2013-06-16 02:59:00,
2013-06-15 23:04:00,70.6,55.1,29.99,North,0,0.0,0.0,58,0.00,,,0.00,WUHU216HW,2013-06-16 03:04:00,
2013-06-15 23:09:00,70.6,54.5,29.99,North,0,0.0,0.0,57,0.00,,,0.00,WUHU216HW,2013-06-16 03:09:00,
2013-06-15 23:14:00,70.4,54.9,29.99,North,0,0.0,0.0,58,0.00,,,0.00,WUHU216HW,2013-06-16 03:14:00,
2013-06-15 23:19:00,70.2,54.7,29.99,North,0,0.0,0.0,58,0.00,,,0.00,WUHU216HW,2013-06-16 03:19:00,
2013-06-15 23:25:00,70.2,55.3,29.99,North,0,0.0,0.0,59,0.00,,,0.00,WUHU216HW,2013-06-16 03:25:00,
2013-06-15 23:30:00,69.8,54.9,29.99,North,0,0.0,0.0,59,0.00,,,0.00,WUHU216HW,2013-06-16 03:30:00,
2013-06-15 23:35:00,69.8,54.9,29.99,North,0,0.0,0.0,59,0.00,,,0.00,WUHU216HW,2013-06-16 03:35:00,
2013-06-15 23:40:00,69.7,55.3,29.99,North,0,0.0,0.0,60,0.00,,,0.00,WUHU216HW,2013-06-16 03:40:00,
2013-06-15 23:45:00,69.5,55.5,29.99,North,0,0.0,0.0,61,0.00,,,0.00,WUHU216HW,2013-06-16 03:45:00,
2013-06-15 23:50:00,69.7,56.1,29.99,NNE,23,0.0,0.0,62,0.00,,,0.00,WUHU216HW,2013-06-16 03:50:00,
2013-06-15 23:55:00,69.7,56.1,29.99,NNE,23,0.0,0.0,62,0.00,,,0.00,WUHU216HW,2013-06-16 03:55:00,